createdAt,value
2017-04-24T03:00:33.524Z,1017.79
2017-04-24T03:01:52.402Z,1017.78
2017-04-24T03:02:17.950Z,1017.76
2017-04-24T03:02:43.514Z,1017.73
2017-04-24T03:03:09.082Z,1017.72
2017-04-24T03:03:34.683Z,1017.74
2017-04-24T03:04:00.250Z,1017.7
2017-04-24T03:04:25.806Z,1017.68
2017-04-24T03:04:51.425Z,1017.7
2017-04-24T03:05:16.977Z,1017.69
2017-04-24T03:05:42.536Z,1017.67
2017-04-24T03:06:08.105Z,1017.72
2017-04-24T03:06:33.650Z,1017.72
2017-04-24T03:06:59.241Z,1017.65
2017-04-24T03:07:24.833Z,1017.67
2017-04-24T03:07:50.411Z,1017.64
2017-04-24T03:08:15.973Z,1017.62
2017-04-24T03:08:41.535Z,1017.63
2017-04-24T03:09:07.091Z,1017.6
2017-04-24T03:09:32.641Z,1017.67
2017-04-24T03:09:58.209Z,1017.6
2017-04-24T03:10:24.421Z,1017.64
2017-04-24T03:10:49.973Z,1017.62
2017-04-24T03:11:15.529Z,1017.63
2017-04-24T03:11:41.091Z,1017.66
2017-04-24T03:12:06.630Z,1017.63
2017-04-24T03:12:32.177Z,1017.65
2017-04-24T03:12:57.724Z,1017.56
2017-04-24T03:13:23.266Z,1017.61
2017-04-24T03:13:48.803Z,1017.59
2017-04-24T03:14:14.391Z,1017.58
2017-04-24T03:14:39.931Z,1017.59
2017-04-24T03:15:05.480Z,1017.56
2017-04-24T03:15:31.016Z,1017.59
2017-04-24T03:15:56.573Z,1017.54
2017-04-24T03:16:22.200Z,1017.56
2017-04-24T03:16:47.801Z,1017.57
2017-04-24T03:17:13.371Z,1017.56
2017-04-24T03:17:38.910Z,1017.53
2017-04-24T03:18:04.502Z,1017.48
2017-04-24T03:18:30.037Z,1017.52
2017-04-24T03:18:55.595Z,1017.5
2017-04-24T03:19:21.140Z,1017.52
2017-04-24T03:19:46.700Z,1017.48
2017-04-24T03:20:12.309Z,1017.5
2017-04-24T03:20:37.863Z,1017.48
2017-04-24T03:21:03.409Z,1017.47
2017-04-24T03:21:28.964Z,1017.45
2017-04-24T03:21:54.524Z,1017.47
2017-04-24T03:22:20.156Z,1017.4
2017-04-24T03:22:45.711Z,1017.4
2017-04-24T03:23:11.273Z,1017.42
2017-04-24T03:23:36.878Z,1017.4
2017-04-24T03:24:02.591Z,1017.42
2017-04-24T03:24:28.153Z,1017.35
2017-04-24T03:24:53.708Z,1017.37
2017-04-24T03:25:19.402Z,1017.37
2017-04-24T03:25:44.991Z,1017.41
2017-04-24T03:26:10.531Z,1017.38
2017-04-24T03:26:36.200Z,1017.35
2017-04-24T03:27:01.753Z,1017.33
2017-04-24T03:27:27.322Z,1017.35
2017-04-24T03:27:52.900Z,1017.32
2017-04-24T03:28:18.463Z,1017.32
2017-04-24T03:28:44.021Z,1017.34
2017-04-24T03:29:09.594Z,1017.32
2017-04-24T03:29:35.123Z,1017.26
2017-04-24T03:30:00.700Z,1017.31
2017-04-24T03:30:26.263Z,1017.29
2017-04-24T03:30:51.897Z,1017.25
2017-04-24T03:31:17.453Z,1017.26
2017-04-24T03:31:43.001Z,1017.25
2017-04-24T03:32:08.593Z,1017.28
2017-04-24T03:32:34.152Z,1017.23
2017-04-24T03:32:59.706Z,1017.22
2017-04-24T03:33:25.283Z,1017.25
2017-04-24T03:33:50.863Z,1017.18
2017-04-24T03:34:16.477Z,1017.18
2017-04-24T03:34:42.024Z,1017.16
2017-04-24T03:35:07.581Z,1017.21
2017-04-24T03:35:33.163Z,1017.15
2017-04-24T03:35:58.733Z,1017.14
2017-04-24T03:36:24.293Z,1017.16
2017-04-24T03:36:49.850Z,1017.12
2017-04-24T03:37:15.379Z,1017.13
2017-04-24T03:37:40.938Z,1017.11
2017-04-24T03:38:06.486Z,1017.11
2017-04-24T03:38:32.059Z,1017.17
2017-04-24T03:38:57.651Z,1017.09
2017-04-24T03:39:23.196Z,1017.13
2017-04-24T03:39:48.761Z,1017.05
2017-04-24T03:40:57.371Z,1017.07
2017-04-24T03:41:22.941Z,1017.05
2017-04-24T03:41:48.583Z,1017.06
2017-04-24T03:42:14.179Z,1017.03
2017-04-24T03:42:39.731Z,1017.04
2017-04-24T03:43:05.381Z,1017.04
2017-04-24T03:43:30.969Z,1017.02
2017-04-24T03:43:56.541Z,1017
2017-04-24T03:44:22.181Z,1016.98
2017-04-24T03:44:47.730Z,1016.96
2017-04-24T03:45:13.269Z,1017
2017-04-24T03:45:38.802Z,1016.93
2017-04-24T03:46:04.342Z,1016.95
2017-04-24T03:46:29.938Z,1016.91
2017-04-24T03:46:55.479Z,1016.96
2017-04-24T03:47:21.018Z,1016.95
2017-04-24T03:47:46.557Z,1016.95
2017-04-24T03:48:12.097Z,1016.93
2017-04-24T03:48:37.630Z,1016.89
2017-04-24T03:49:03.190Z,1016.88
2017-04-24T03:49:28.752Z,1016.88
2017-04-24T03:49:54.302Z,1016.85
2017-04-24T03:50:19.887Z,1016.87
2017-04-24T03:50:45.416Z,1016.85
2017-04-24T03:51:10.982Z,1016.81
2017-04-24T03:51:36.545Z,1016.86
2017-04-24T03:52:02.093Z,1016.85
2017-04-24T03:52:27.638Z,1016.81
2017-04-24T03:52:53.191Z,1016.82
2017-04-24T03:53:18.754Z,1016.81
2017-04-24T03:53:44.293Z,1016.82
2017-04-24T03:54:09.870Z,1016.81
2017-04-24T03:54:35.427Z,1016.75
2017-04-24T03:55:00.983Z,1016.77
2017-04-24T03:55:26.543Z,1016.8
2017-04-24T03:55:52.161Z,1016.81
2017-04-24T03:57:05.897Z,1016.79
2017-04-24T03:57:31.445Z,1016.76
2017-04-24T03:57:57.088Z,1016.79
2017-04-24T03:58:22.639Z,1016.73
2017-04-24T03:58:48.197Z,1016.79
2017-04-24T03:59:13.775Z,1016.71
2017-04-24T03:59:39.381Z,1016.72
2017-04-24T04:00:05.111Z,1016.73
2017-04-24T04:00:30.861Z,1016.71
2017-04-24T04:00:56.415Z,1016.72
2017-04-24T04:01:21.980Z,1016.69
2017-04-24T04:01:47.531Z,1016.67
2017-04-24T04:02:13.088Z,1016.63
2017-04-24T04:02:38.642Z,1016.65
2017-04-24T04:03:04.205Z,1016.66
2017-04-24T04:03:29.765Z,1016.66
2017-04-24T04:03:55.329Z,1016.64
2017-04-24T04:04:20.896Z,1016.65
2017-04-24T04:04:46.441Z,1016.68
2017-04-24T04:05:12.014Z,1016.67
2017-04-24T04:05:37.668Z,1016.68
2017-04-24T04:06:03.232Z,1016.66
2017-04-24T04:06:28.805Z,1016.63
2017-04-24T04:06:54.450Z,1016.61
2017-04-24T04:07:20.008Z,1016.62
2017-04-24T04:07:45.562Z,1016.6
2017-04-24T04:08:11.127Z,1016.61
2017-04-24T04:08:36.681Z,1016.56
2017-04-24T04:09:02.221Z,1016.59
2017-04-24T04:10:05.765Z,1016.58
2017-04-24T04:10:31.324Z,1016.62
2017-04-24T04:10:56.869Z,1016.6
2017-04-24T04:11:22.431Z,1016.56
2017-04-24T04:11:48.028Z,1016.61
2017-04-24T04:12:13.654Z,1016.57
2017-04-24T04:12:39.221Z,1016.58
2017-04-24T04:13:04.788Z,1016.6
2017-04-24T04:13:30.370Z,1016.54
2017-04-24T04:14:28.489Z,1016.59
2017-04-24T04:14:54.079Z,1016.52
2017-04-24T04:15:19.590Z,1016.52
2017-04-24T04:15:45.138Z,1016.5
2017-04-24T04:16:10.695Z,1016.5
2017-04-24T04:16:36.255Z,1016.49
2017-04-24T04:17:01.787Z,1016.5
2017-04-24T04:17:27.330Z,1016.48
2017-04-24T04:17:52.870Z,1016.45
2017-04-24T04:18:18.421Z,1016.43
2017-04-24T04:18:43.991Z,1016.45
2017-04-24T04:19:09.583Z,1016.46
2017-04-24T04:19:35.149Z,1016.43
2017-04-24T04:20:00.710Z,1016.4
2017-04-24T04:20:26.261Z,1016.39
2017-04-24T04:20:51.813Z,1016.38
2017-04-24T04:21:17.396Z,1016.4
2017-04-24T04:21:42.954Z,1016.37
2017-04-24T04:22:08.520Z,1016.37
2017-04-24T04:22:34.163Z,1016.38
2017-04-24T04:22:59.748Z,1016.38
2017-04-24T04:23:25.302Z,1016.39
2017-04-24T04:23:50.843Z,1016.38
2017-04-24T04:24:16.398Z,1016.39
2017-04-24T04:24:41.959Z,1016.36
2017-04-24T04:25:07.529Z,1016.39
2017-04-24T04:25:33.125Z,1016.4
2017-04-24T04:25:58.682Z,1016.42
2017-04-24T04:26:24.254Z,1016.35
2017-04-24T04:26:49.835Z,1016.37
2017-04-24T04:27:15.431Z,1016.39
2017-04-24T04:28:13.517Z,1016.38
2017-04-24T04:28:39.083Z,1016.4
2017-04-24T04:29:04.783Z,1016.35
2017-04-24T04:29:30.362Z,1016.34
2017-04-24T04:29:55.913Z,1016.31
2017-04-24T04:30:21.541Z,1016.32
2017-04-24T04:30:47.130Z,1016.29
2017-04-24T04:31:12.672Z,1016.28
2017-04-24T04:31:38.225Z,1016.32
2017-04-24T04:32:03.770Z,1016.3
2017-04-24T04:32:29.307Z,1016.3
2017-04-24T04:32:54.880Z,1016.26
2017-04-24T04:33:20.423Z,1016.3
2017-04-24T04:33:46.008Z,1016.3
2017-04-24T04:34:11.563Z,1016.24
2017-04-24T04:34:37.120Z,1016.26
2017-04-24T04:35:02.672Z,1016.31
2017-04-24T04:35:28.245Z,1016.28
2017-04-24T04:35:53.832Z,1016.23
2017-04-24T04:36:19.483Z,1016.24
2017-04-24T04:36:45.062Z,1016.21
2017-04-24T04:37:53.693Z,1016.2
2017-04-24T04:38:19.250Z,1016.21
2017-04-24T04:38:44.804Z,1016.22
2017-04-24T04:39:10.368Z,1016.19
2017-04-24T04:39:35.922Z,1016.17
2017-04-24T04:40:01.484Z,1016.17
2017-04-24T04:40:27.057Z,1016.16
2017-04-24T04:40:52.602Z,1016.17
2017-04-24T04:41:18.178Z,1016.18
2017-04-24T04:41:43.741Z,1016.14
2017-04-24T04:42:09.306Z,1016.13
2017-04-24T04:42:34.864Z,1016.16
2017-04-24T04:43:00.437Z,1016.12
2017-04-24T04:43:26.011Z,1016.09
2017-04-24T04:44:39.748Z,1016.07
2017-04-24T04:46:55.052Z,1016.01
2017-04-24T04:47:20.616Z,1016.03
2017-04-24T04:47:46.163Z,1016
2017-04-24T04:48:11.745Z,1016.01
2017-04-24T04:48:37.294Z,1015.97
2017-04-24T04:49:02.898Z,1016.01
2017-04-24T04:49:28.460Z,1015.96
2017-04-24T04:49:54.012Z,1015.97
2017-04-24T04:50:19.572Z,1016.01
2017-04-24T04:50:45.133Z,1016
2017-04-24T04:51:10.730Z,1015.97
2017-04-24T04:51:36.270Z,1015.96
2017-04-24T04:52:01.818Z,1015.95
2017-04-24T04:52:27.512Z,1015.97
2017-04-24T04:52:53.090Z,1015.93
2017-04-24T04:53:18.650Z,1015.91
2017-04-24T04:53:44.223Z,1015.91
2017-04-24T04:54:09.843Z,1015.88
2017-04-24T04:54:35.397Z,1015.89
2017-04-24T04:55:00.961Z,1015.85
2017-04-24T04:55:26.530Z,1015.91
2017-04-24T04:55:52.080Z,1015.88
2017-04-24T04:56:17.682Z,1015.88
2017-04-24T04:56:43.261Z,1015.89
2017-04-24T04:57:08.820Z,1015.89
2017-04-24T04:57:34.482Z,1015.85
2017-04-24T04:58:00.096Z,1015.8
2017-04-24T04:58:25.643Z,1015.84
2017-04-24T04:58:51.213Z,1015.9
2017-04-24T04:59:54.873Z,1015.79
2017-04-24T05:00:20.435Z,1015.76
2017-04-24T05:00:46.120Z,1015.78
2017-04-24T05:01:11.751Z,1015.79
2017-04-24T05:01:37.303Z,1015.8
2017-04-24T05:02:02.865Z,1015.7
2017-04-24T05:02:28.426Z,1015.71
2017-04-24T05:02:53.986Z,1015.79
2017-04-24T05:03:19.543Z,1015.74
2017-04-24T05:03:45.110Z,1015.74
2017-04-24T05:04:10.671Z,1015.7
2017-04-24T05:04:36.230Z,1015.75
2017-04-24T05:05:01.789Z,1015.72
2017-04-24T05:05:27.330Z,1015.67
2017-04-24T05:05:52.903Z,1015.74
2017-04-24T05:06:18.489Z,1015.69
2017-04-24T05:06:44.057Z,1015.63
2017-04-24T05:07:09.613Z,1015.66
2017-04-24T05:07:35.157Z,1015.65
2017-04-24T05:08:00.731Z,1015.63
2017-04-24T05:08:26.303Z,1015.63
2017-04-24T05:08:52.090Z,1015.65
2017-04-24T05:09:17.631Z,1015.61
2017-04-24T05:09:43.291Z,1015.6
2017-04-24T05:10:08.849Z,1015.59
2017-04-24T05:10:34.416Z,1015.58
2017-04-24T05:10:59.973Z,1015.61
2017-04-24T05:11:25.552Z,1015.6
2017-04-24T05:11:51.112Z,1015.56
2017-04-24T05:12:16.698Z,1015.58
2017-04-24T05:12:42.272Z,1015.61
2017-04-24T05:13:07.813Z,1015.6
2017-04-24T05:13:33.442Z,1015.58
2017-04-24T05:13:59.025Z,1015.55
2017-04-24T05:14:24.560Z,1015.59
2017-04-24T05:14:50.204Z,1015.51
2017-04-24T05:15:15.771Z,1015.53
2017-04-24T05:15:41.322Z,1015.57
2017-04-24T05:16:06.869Z,1015.56
2017-04-24T05:16:32.449Z,1015.53
2017-04-24T05:16:57.989Z,1015.52
2017-04-24T05:17:23.560Z,1015.55
2017-04-24T05:17:49.123Z,1015.51
2017-04-24T05:18:14.677Z,1015.52
2017-04-24T05:18:40.265Z,1015.48
2017-04-24T05:19:05.844Z,1015.48
2017-04-24T05:19:31.430Z,1015.5
2017-04-24T05:19:56.970Z,1015.47
2017-04-24T05:20:22.511Z,1015.49
2017-04-24T05:20:48.083Z,1015.46
2017-04-24T05:21:13.654Z,1015.46
2017-04-24T05:21:39.190Z,1015.42
2017-04-24T05:22:04.732Z,1015.4
2017-04-24T05:22:31.201Z,1015.45
2017-04-24T05:22:56.769Z,1015.46
2017-04-24T05:23:22.321Z,1015.43
2017-04-24T05:23:47.892Z,1015.42
2017-04-24T05:24:13.442Z,1015.42
2017-04-24T05:24:39.014Z,1015.37
2017-04-24T05:25:04.572Z,1015.41
2017-04-24T05:26:08.075Z,1015.33
2017-04-24T05:27:21.519Z,1015.33
2017-04-24T05:27:47.062Z,1015.37
2017-04-24T05:28:12.634Z,1015.37
2017-04-24T05:28:38.286Z,1015.35
2017-04-24T05:29:03.945Z,1015.33
2017-04-24T05:29:29.533Z,1015.34
2017-04-24T05:29:55.093Z,1015.31
2017-04-24T05:30:20.684Z,1015.35
2017-04-24T05:30:46.259Z,1015.39
2017-04-24T05:31:11.814Z,1015.34
2017-04-24T05:32:30.710Z,1015.34
2017-04-24T05:32:56.267Z,1015.34
2017-04-24T05:33:21.834Z,1015.34
2017-04-24T05:33:47.397Z,1015.32
2017-04-24T05:34:12.952Z,1015.32
2017-04-24T05:34:38.647Z,1015.34
2017-04-24T05:35:04.198Z,1015.3
2017-04-24T05:35:29.768Z,1015.28
2017-04-24T05:35:55.471Z,1015.32
2017-04-24T05:36:21.035Z,1015.26
2017-04-24T05:36:46.610Z,1015.28
2017-04-24T05:37:12.239Z,1015.23
2017-04-24T05:37:37.885Z,1015.23
2017-04-24T05:38:03.449Z,1015.26
2017-04-24T05:38:29.005Z,1015.2
2017-04-24T05:38:54.683Z,1015.22
2017-04-24T05:39:20.273Z,1015.21
2017-04-24T05:39:45.824Z,1015.19
2017-04-24T05:40:11.397Z,1015.24
2017-04-24T05:40:36.963Z,1015.11
2017-04-24T05:41:02.521Z,1015.12
2017-04-24T05:41:28.063Z,1015.18
2017-04-24T05:41:53.622Z,1015.15
2017-04-24T05:42:19.180Z,1015.12
2017-04-24T05:42:44.833Z,1015.12
2017-04-24T05:43:10.435Z,1015.13
2017-04-24T05:43:35.997Z,1015.12
2017-04-24T05:44:01.540Z,1015.07
2017-04-24T05:44:27.171Z,1015.09
2017-04-24T05:44:52.724Z,1015.07
2017-04-24T05:45:18.270Z,1015.14
2017-04-24T05:45:43.831Z,1015.09
2017-04-24T05:46:09.396Z,1015.12
2017-04-24T05:46:34.984Z,1015.13
2017-04-24T05:47:00.565Z,1015.09
2017-04-24T05:47:26.124Z,1015.12
2017-04-24T05:47:51.813Z,1015.08
2017-04-24T05:48:17.373Z,1015.09
2017-04-24T05:48:42.983Z,1015.04
2017-04-24T05:49:08.562Z,1015.12
2017-04-24T05:49:34.127Z,1015.1
2017-04-24T05:49:59.687Z,1015.08
2017-04-24T05:50:25.249Z,1015.07
2017-04-24T05:50:50.841Z,1015.03
2017-04-24T05:51:16.436Z,1014.99
2017-04-24T05:51:42.051Z,1014.99
2017-04-24T05:52:07.579Z,1015.07
2017-04-24T05:52:33.169Z,1015.02
2017-04-24T05:52:58.727Z,1015.03
2017-04-24T05:53:24.270Z,1014.99
2017-04-24T05:53:49.819Z,1015
2017-04-24T05:54:15.480Z,1015.02
2017-04-24T05:54:41.104Z,1015.01
2017-04-24T05:55:06.643Z,1014.99
2017-04-24T05:55:32.183Z,1014.98
2017-04-24T05:55:57.749Z,1014.98
2017-04-24T05:56:23.321Z,1014.98
2017-04-24T05:56:48.873Z,1014.97
2017-04-24T05:57:14.421Z,1015.01
2017-04-24T05:57:39.953Z,1014.97
2017-04-24T05:58:05.512Z,1015.03
2017-04-24T05:58:31.113Z,1014.99
2017-04-24T05:58:56.677Z,1015
2017-04-24T05:59:22.221Z,1014.98
2017-04-24T05:59:47.777Z,1014.99
2017-04-24T06:01:06.673Z,1014.96
2017-04-24T06:01:32.224Z,1014.99
2017-04-24T06:01:57.791Z,1014.96
2017-04-24T06:02:23.341Z,1014.94
2017-04-24T06:02:49.715Z,1014.96
2017-04-24T06:03:15.285Z,1014.93
2017-04-24T06:03:40.841Z,1014.95
2017-04-24T06:04:06.412Z,1014.95
2017-04-24T06:04:31.962Z,1015
2017-04-24T06:04:57.537Z,1014.98
2017-04-24T06:05:23.086Z,1015.02
2017-04-24T06:05:48.802Z,1015
2017-04-24T06:06:14.351Z,1014.97
2017-04-24T06:06:39.933Z,1014.93
2017-04-24T06:07:05.492Z,1014.99
2017-04-24T06:07:31.183Z,1014.9
2017-04-24T06:07:56.750Z,1014.95
2017-04-24T06:08:22.292Z,1014.95
2017-04-24T06:08:47.850Z,1014.96
2017-04-24T06:09:13.412Z,1014.93
2017-04-24T06:09:38.986Z,1014.88
2017-04-24T06:10:04.556Z,1014.93
2017-04-24T06:10:30.092Z,1014.91
2017-04-24T06:10:55.764Z,1014.92
2017-04-24T06:11:21.311Z,1014.93
2017-04-24T06:11:46.872Z,1014.91
2017-04-24T06:12:12.433Z,1014.9
2017-04-24T06:12:37.959Z,1014.86
2017-04-24T06:13:03.531Z,1014.87
2017-04-24T06:13:29.106Z,1014.92
2017-04-24T06:13:54.659Z,1014.83
2017-04-24T06:14:20.209Z,1014.84
2017-04-24T06:14:45.764Z,1014.89
2017-04-24T06:15:11.312Z,1014.85
2017-04-24T06:15:36.864Z,1014.83
2017-04-24T06:16:02.392Z,1014.87
2017-04-24T06:16:27.941Z,1014.88
2017-04-24T06:16:53.492Z,1014.9
2017-04-24T06:17:19.036Z,1014.84
2017-04-24T06:17:44.581Z,1014.88
2017-04-24T06:18:10.132Z,1014.86
2017-04-24T06:18:35.685Z,1014.78
2017-04-24T06:19:01.230Z,1014.82
2017-04-24T06:19:26.776Z,1014.81
2017-04-24T06:19:52.332Z,1014.85
2017-04-24T06:20:17.979Z,1014.84
2017-04-24T06:20:43.561Z,1014.81
2017-04-24T06:21:09.128Z,1014.79
2017-04-24T06:21:34.775Z,1014.79
2017-04-24T06:22:00.308Z,1014.78
2017-04-24T06:22:25.890Z,1014.8
2017-04-24T06:22:51.450Z,1014.79
2017-04-24T06:23:17.011Z,1014.78
2017-04-24T06:23:42.567Z,1014.8
2017-04-24T06:24:08.119Z,1014.84
2017-04-24T06:24:33.667Z,1014.85
2017-04-24T06:24:59.223Z,1014.7
2017-04-24T06:25:24.776Z,1014.74
2017-04-24T06:25:50.353Z,1014.83
2017-04-24T06:26:15.913Z,1014.78
2017-04-24T06:26:41.501Z,1014.78
2017-04-24T06:27:07.061Z,1014.79
2017-04-24T06:27:32.794Z,1014.79
2017-04-24T06:27:58.353Z,1014.81
2017-04-24T06:28:23.914Z,1014.73
2017-04-24T06:28:49.586Z,1014.78
2017-04-24T06:29:15.144Z,1014.75
2017-04-24T06:29:40.693Z,1014.77
2017-04-24T06:30:06.264Z,1014.77
2017-04-24T06:30:31.817Z,1014.74
2017-04-24T06:30:57.380Z,1014.73
2017-04-24T06:31:22.919Z,1014.7
2017-04-24T06:31:48.476Z,1014.71
2017-04-24T06:32:14.040Z,1014.72
2017-04-24T06:32:39.622Z,1014.73
2017-04-24T06:33:05.182Z,1014.7
2017-04-24T06:33:30.734Z,1014.7
2017-04-24T06:33:56.282Z,1014.73
2017-04-24T06:34:21.818Z,1014.58
2017-04-24T06:34:47.504Z,1014.7
2017-04-24T06:35:13.091Z,1014.72
2017-04-24T06:35:38.621Z,1014.7
2017-04-24T06:36:04.291Z,1014.68
2017-04-24T06:36:29.853Z,1014.69
2017-04-24T06:36:55.415Z,1014.59
2017-04-24T06:37:20.972Z,1014.61
2017-04-24T06:37:46.519Z,1014.63
2017-04-24T06:38:12.061Z,1014.58
2017-04-24T06:38:37.682Z,1014.61
2017-04-24T06:39:03.305Z,1014.57
2017-04-24T06:39:28.870Z,1014.56
2017-04-24T06:39:54.453Z,1014.56
2017-04-24T06:40:20.119Z,1014.6
2017-04-24T06:40:45.683Z,1014.62
2017-04-24T06:41:11.250Z,1014.53
2017-04-24T06:41:36.851Z,1014.53
2017-04-24T06:42:02.420Z,1014.52
2017-04-24T06:42:28.084Z,1014.56
2017-04-24T06:42:53.653Z,1014.5
2017-04-24T06:43:19.214Z,1014.52
2017-04-24T06:43:44.769Z,1014.46
2017-04-24T06:44:10.503Z,1014.45
2017-04-24T06:44:36.061Z,1014.49
2017-04-24T06:45:01.603Z,1014.44
2017-04-24T06:45:27.174Z,1014.41
2017-04-24T06:45:52.746Z,1014.47
2017-04-24T06:46:18.354Z,1014.45
2017-04-24T06:46:43.905Z,1014.43
2017-04-24T06:47:09.473Z,1014.45
2017-04-24T06:47:35.035Z,1014.44
2017-04-24T06:48:00.684Z,1014.43
2017-04-24T06:48:26.288Z,1014.44
2017-04-24T06:48:51.854Z,1014.41
2017-04-24T06:49:17.511Z,1014.41
2017-04-24T06:49:43.093Z,1014.39
2017-04-24T06:50:08.665Z,1014.41
2017-04-24T06:50:34.218Z,1014.38
2017-04-24T06:50:59.895Z,1014.34
2017-04-24T06:51:25.506Z,1014.4
2017-04-24T06:51:51.075Z,1014.39
2017-04-24T06:52:16.707Z,1014.38
2017-04-24T06:52:42.255Z,1014.26
2017-04-24T06:53:07.850Z,1014.32
2017-04-24T06:53:33.455Z,1014.39
2017-04-24T06:53:59.158Z,1014.33
2017-04-24T06:54:24.791Z,1014.34
2017-04-24T06:54:50.347Z,1014.32
2017-04-24T06:55:15.892Z,1014.4
2017-04-24T06:55:41.462Z,1014.38
2017-04-24T06:56:07.015Z,1014.33
2017-04-24T06:56:32.759Z,1014.33
2017-04-24T06:56:58.321Z,1014.32
2017-04-24T06:57:23.890Z,1014.28
2017-04-24T06:57:49.446Z,1014.27
2017-04-24T06:58:15.007Z,1014.26
2017-04-24T06:58:40.561Z,1014.28
2017-04-24T06:59:06.124Z,1014.28
2017-04-24T06:59:31.679Z,1014.24
2017-04-24T06:59:57.242Z,1014.3
2017-04-24T07:00:22.805Z,1014.24
2017-04-24T07:00:48.371Z,1014.22
2017-04-24T07:01:13.990Z,1014.25
2017-04-24T07:01:39.564Z,1014.19
2017-04-24T07:02:05.121Z,1014.2
2017-04-24T07:02:30.671Z,1014.19
2017-04-24T07:02:56.223Z,1014.18
2017-04-24T07:03:21.772Z,1014.22
2017-04-24T07:03:47.354Z,1014.16
2017-04-24T07:04:12.904Z,1014.17
2017-04-24T07:04:38.452Z,1014.17
2017-04-24T07:05:03.990Z,1014.15
2017-04-24T07:05:29.548Z,1014.14
2017-04-24T07:05:55.092Z,1014.18
2017-04-24T07:06:20.674Z,1014.19
2017-04-24T07:06:46.211Z,1014.13
2017-04-24T07:07:11.752Z,1014.14
2017-04-24T07:07:37.303Z,1014.11
2017-04-24T07:08:02.874Z,1014.09
2017-04-24T07:08:28.550Z,1014.07
2017-04-24T07:08:54.118Z,1014.08
2017-04-24T07:09:19.679Z,1014.01
2017-04-24T07:09:45.230Z,1014.08
2017-04-24T07:10:10.786Z,1014.09
2017-04-24T07:10:36.343Z,1014.01
2017-04-24T07:11:01.897Z,1013.97
2017-04-24T07:11:27.471Z,1014.01
2017-04-24T07:11:53.021Z,1013.96
2017-04-24T07:12:18.595Z,1014.01
2017-04-24T07:12:44.164Z,1013.98
2017-04-24T07:13:09.731Z,1013.99
2017-04-24T07:13:35.298Z,1014.01
2017-04-24T07:14:00.864Z,1013.99
2017-04-24T07:14:26.519Z,1013.98
2017-04-24T07:14:52.055Z,1013.98
2017-04-24T07:15:17.598Z,1013.9
2017-04-24T07:15:43.143Z,1013.95
2017-04-24T07:16:08.681Z,1013.97
2017-04-24T07:16:34.233Z,1013.84
2017-04-24T07:16:59.804Z,1013.93
2017-04-24T07:17:58.386Z,1013.94
2017-04-24T07:18:23.941Z,1013.84
2017-04-24T07:18:49.511Z,1013.9
2017-04-24T07:19:15.077Z,1013.85
2017-04-24T07:19:40.638Z,1013.83
2017-04-24T07:20:06.188Z,1013.85
2017-04-24T07:20:31.735Z,1013.82
2017-04-24T07:20:57.285Z,1013.86
2017-04-24T07:22:15.924Z,1013.83
2017-04-24T07:22:41.467Z,1013.84
2017-04-24T07:23:07.024Z,1013.85
2017-04-24T07:23:32.684Z,1013.76
2017-04-24T07:23:58.222Z,1013.79
2017-04-24T07:24:23.785Z,1013.82
2017-04-24T07:24:49.476Z,1013.76
2017-04-24T07:25:15.183Z,1013.78
2017-04-24T07:25:40.766Z,1013.78
2017-04-24T07:26:06.300Z,1013.79
2017-04-24T07:26:31.853Z,1013.84
2017-04-24T07:26:57.408Z,1013.8
2017-04-24T07:27:23.052Z,1013.65
2017-04-24T07:27:48.610Z,1013.78
2017-04-24T07:28:14.255Z,1013.7
2017-04-24T07:28:39.822Z,1013.73
2017-04-24T07:29:05.384Z,1013.69
2017-04-24T07:29:30.941Z,1013.76
2017-04-24T07:29:56.524Z,1013.67
2017-04-24T07:30:22.084Z,1013.69
2017-04-24T07:30:47.634Z,1013.67
2017-04-24T07:31:13.193Z,1013.66
2017-04-24T07:31:38.741Z,1013.63
2017-04-24T07:32:04.297Z,1013.66
2017-04-24T07:32:29.864Z,1013.68
2017-04-24T07:32:55.413Z,1013.65
2017-04-24T07:33:20.974Z,1013.56
2017-04-24T07:33:46.543Z,1013.63
2017-04-24T07:34:12.141Z,1013.47
2017-04-24T07:34:37.684Z,1013.61
2017-04-24T07:35:03.287Z,1013.56
2017-04-24T07:35:28.834Z,1013.54
2017-04-24T07:35:54.400Z,1013.57
2017-04-24T07:36:20.026Z,1013.54
2017-04-24T07:36:45.586Z,1013.52
2017-04-24T07:37:11.199Z,1013.57
2017-04-24T07:37:36.844Z,1013.55
2017-04-24T07:38:02.392Z,1013.49
2017-04-24T07:38:27.961Z,1013.54
2017-04-24T07:38:53.525Z,1013.55
2017-04-24T07:39:19.099Z,1013.52
2017-04-24T07:39:44.668Z,1013.54
2017-04-24T07:40:10.243Z,1013.59
2017-04-24T07:40:35.795Z,1013.53
2017-04-24T07:41:01.406Z,1013.5
2017-04-24T07:41:26.950Z,1013.51
2017-04-24T07:41:52.515Z,1013.49
2017-04-24T07:42:18.147Z,1013.48
2017-04-24T07:42:43.739Z,1013.42
2017-04-24T07:43:09.304Z,1013.48
2017-04-24T07:43:34.885Z,1013.46
2017-04-24T07:44:00.522Z,1013.53
2017-04-24T07:44:26.113Z,1013.53
2017-04-24T07:44:51.685Z,1013.54
2017-04-24T07:45:17.240Z,1013.55
2017-04-24T07:45:42.784Z,1013.5
2017-04-24T07:46:08.381Z,1013.55
2017-04-24T07:46:33.937Z,1013.58
2017-04-24T07:46:59.502Z,1013.55
2017-04-24T07:47:25.054Z,1013.53
2017-04-24T07:47:50.711Z,1013.49
2017-04-24T07:48:16.272Z,1013.54
2017-04-24T07:48:41.803Z,1013.53
2017-04-24T07:49:07.383Z,1013.54
2017-04-24T07:49:32.959Z,1013.45
2017-04-24T07:49:58.526Z,1013.41
2017-04-24T07:50:24.112Z,1013.51
2017-04-24T07:50:49.691Z,1013.45
2017-04-24T07:51:15.252Z,1013.43
2017-04-24T07:51:40.938Z,1013.41
2017-04-24T07:52:06.497Z,1013.42
2017-04-24T07:52:32.033Z,1013.37
2017-04-24T07:53:40.697Z,1013.34
2017-04-24T07:54:06.261Z,1013.34
2017-04-24T07:54:31.829Z,1013.31
2017-04-24T07:54:57.380Z,1013.38
2017-04-24T07:55:22.944Z,1013.41
2017-04-24T07:55:48.512Z,1013.37
2017-04-24T07:56:14.063Z,1013.38
2017-04-24T07:56:39.767Z,1013.39
2017-04-24T07:57:05.329Z,1013.34
2017-04-24T07:57:30.888Z,1013.35
2017-04-24T07:57:56.444Z,1013.22
2017-04-24T07:58:22.003Z,1013.24
2017-04-24T07:58:47.679Z,1013.28
2017-04-24T07:59:13.222Z,1013.28
2017-04-24T07:59:38.857Z,1013.29
2017-04-24T08:00:04.437Z,1013.3
2017-04-24T08:00:29.995Z,1013.3
2017-04-24T08:00:55.565Z,1013.34
2017-04-24T08:01:21.242Z,1013.29
2017-04-24T08:01:46.800Z,1013.33
2017-04-24T08:02:12.448Z,1013.31
2017-04-24T08:02:38.055Z,1013.33
2017-04-24T08:03:03.611Z,1013.31
2017-04-24T08:03:29.161Z,1013.29
2017-04-24T08:03:54.744Z,1013.23
2017-04-24T08:04:20.306Z,1013.22
2017-04-24T08:04:45.847Z,1013.22
2017-04-24T08:05:11.419Z,1013.18
2017-04-24T08:05:36.956Z,1013.18
2017-04-24T08:06:02.610Z,1013.09
2017-04-24T08:06:28.222Z,1013.13
2017-04-24T08:06:53.795Z,1013.13
2017-04-24T08:07:19.331Z,1013.25
2017-04-24T08:07:45.038Z,1013.19
2017-04-24T08:08:43.450Z,1013.14
2017-04-24T08:09:09.017Z,1013.11
2017-04-24T08:09:34.571Z,1013
2017-04-24T08:10:00.141Z,1013.06
2017-04-24T08:10:25.704Z,1013.08
2017-04-24T08:10:51.263Z,1013.09
2017-04-24T08:11:16.821Z,1013.05
2017-04-24T08:11:42.498Z,1013.09
2017-04-24T08:12:08.146Z,1013.12
2017-04-24T08:12:33.693Z,1013.06
2017-04-24T08:12:59.257Z,1013.05
2017-04-24T08:13:24.830Z,1013.07
2017-04-24T08:13:50.433Z,1013.15
2017-04-24T08:14:15.994Z,1013.08
2017-04-24T08:14:41.571Z,1013.13
2017-04-24T08:15:07.143Z,1013.03
2017-04-24T08:15:32.678Z,1013.04
2017-04-24T08:15:58.234Z,1013.09
2017-04-24T08:16:23.800Z,1013.03
2017-04-24T08:16:49.432Z,1013.04
2017-04-24T08:17:15.064Z,1012.89
2017-04-24T08:17:40.613Z,1012.92
2017-04-24T08:18:06.168Z,1013.01
2017-04-24T08:18:31.731Z,1012.95
2017-04-24T08:18:57.281Z,1013.06
2017-04-24T08:19:22.845Z,1013.08
2017-04-24T08:19:48.424Z,1013.03
2017-04-24T08:20:13.999Z,1013.02
2017-04-24T08:20:39.685Z,1012.99
2017-04-24T08:21:05.267Z,1013.07
2017-04-24T08:21:30.818Z,1013.03
2017-04-24T08:21:56.370Z,1013.06
2017-04-24T08:22:22.031Z,1013.01
2017-04-24T08:22:47.586Z,1012.96
2017-04-24T08:23:13.211Z,1013.01
2017-04-24T08:23:38.771Z,1013.01
2017-04-24T08:24:04.312Z,1013.02
2017-04-24T08:24:29.931Z,1013
2017-04-24T08:24:55.479Z,1012.9